Time;durP1;ratioP1;P1;durP2;ratioP2;P2;SDS_P1;SDS_P2;PMS_P1;PMS_P2;Temp;Humidity;BMP_temperature;BMP_pressure;BME280_temperature;BME280_humidity;BME280_pressure;Samples;Min_cycle;Max_cycle;Signal;HPM_P1;HPM_P2
2023/05/25 00:02:03;;;;;;;;;;;21.00;49.10;;;;;;5083365;28;19924;-54
2023/05/25 00:04:29;;;;;;;;;;;20.90;49.10;;;;;;5078967;28;19912;-54
2023/05/25 00:06:54;;;;;;;;;;;21.00;49.30;;;;;;5082225;28;19923;-54
2023/05/25 00:09:20;;;;;;;;;;;20.90;49.20;;;;;;5049848;28;20101;-54
2023/05/25 00:11:45;;;;;;;;;;;20.90;49.20;;;;;;5083549;28;19912;-54
2023/05/25 00:14:11;;;;;;;;;;;21.00;49.30;;;;;;5092783;28;20299;-54
2023/05/25 00:16:36;;;;;;;;;;;20.90;49.20;;;;;;5095338;28;19912;-54
2023/05/25 00:19:05;;;;;;;;;;;20.90;49.20;;;;;;5087107;28;19947;-54
2023/05/25 00:21:33;;;;;;;;;;;20.90;49.20;;;;;;5098196;28;20286;-54
2023/05/25 00:23:59;;;;;;;;;;;20.90;49.30;;;;;;5072224;28;19927;-54
2023/05/25 00:26:24;;;;;;;;;;;20.90;49.30;;;;;;5071103;28;20291;-54
2023/05/25 00:28:50;;;;;;;;;;;20.90;49.30;;;;;;5070209;28;19920;-54
2023/05/25 00:31:15;;;;;;;;;;;20.90;49.40;;;;;;5083602;28;19981;-53
2023/05/25 00:33:41;;;;;;;;;;;20.90;49.40;;;;;;5089223;28;20023;-54
2023/05/25 00:36:07;;;;;;;;;;;20.90;49.30;;;;;;5091308;28;19939;-54
2023/05/25 00:38:33;;;;;;;;;;;20.90;49.40;;;;;;5074492;28;19916;-54
2023/05/25 00:40:58;;;;;;;;;;;20.80;49.30;;;;;;5082257;28;19928;-54
2023/05/25 00:43:24;;;;;;;;;;;20.80;49.30;;;;;;5090817;28;19931;-54
2023/05/25 00:45:50;;;;;;;;;;;20.90;49.40;;;;;;5087516;28;19916;-54
2023/05/25 00:48:16;;;;;;;;;;;20.90;49.30;;;;;;5070339;28;19916;-54
2023/05/25 00:50:41;;;;;;;;;;;20.80;49.30;;;;;;5068574;28;20431;-54
2023/05/25 00:53:07;;;;;;;;;;;20.90;49.40;;;;;;5068114;28;19917;-54
2023/05/25 00:55:36;;;;;;;;;;;20.80;49.40;;;;;;5084425;28;20387;-54
2023/05/25 00:58:02;;;;;;;;;;;20.80;49.50;;;;;;5087397;28;19913;-54
2023/05/25 01:00:27;;;;;;;;;;;20.80;49.50;;;;;;5088717;28;19935;-54
2023/05/25 01:02:55;;;;;;;;;;;20.80;49.40;;;;;;5084740;28;19916;-54
2023/05/25 01:05:20;;;;;;;;;;;20.80;49.50;;;;;;5088981;28;19920;-54
2023/05/25 01:07:46;;;;;;;;;;;20.80;49.60;;;;;;5087469;28;19931;-54
2023/05/25 01:10:11;;;;;;;;;;;20.80;49.60;;;;;;5070391;28;19920;-53
2023/05/25 01:12:37;;;;;;;;;;;20.80;49.50;;;;;;5091426;28;19916;-53
2023/05/25 01:15:03;;;;;;;;;;;20.80;49.60;;;;;;5088303;28;19924;-54
2023/05/25 01:17:28;;;;;;;;;;;20.80;49.60;;;;;;5090813;28;19919;-54
2023/05/25 01:19:54;;;;;;;;;;;20.80;49.60;;;;;;5083452;28;19978;-53
2023/05/25 01:22:27;;;;;;;;;;;20.80;49.40;;;;;;5091884;28;19912;-54
2023/05/25 01:25:00;;;;;;;;;;;20.80;49.40;;;;;;5093116;28;19921;-54
2023/05/25 01:27:46;;;;;;;;;;;20.80;49.50;;;;;;5078713;28;19947;-54
2023/05/25 01:30:12;;;;;;;;;;;20.80;49.50;;;;;;5070357;28;19913;-54
2023/05/25 01:32:37;;;;;;;;;;;20.80;49.40;;;;;;5079682;28;19919;-55
2023/05/25 01:35:03;;;;;;;;;;;20.90;49.40;;;;;;5082175;28;20014;-54
2023/05/25 01:37:30;;;;;;;;;;;20.90;49.40;;;;;;5085986;28;19927;-54
2023/05/25 01:39:55;;;;;;;;;;;20.90;49.40;;;;;;5088751;28;20279;-53
2023/05/25 01:42:21;;;;;;;;;;;20.90;49.40;;;;;;5084731;28;19912;-54
2023/05/25 01:44:46;;;;;;;;;;;20.90;49.30;;;;;;5058861;28;20032;-54
2023/05/25 01:47:20;;;;;;;;;;;21.00;49.30;;;;;;5065883;28;19924;-54
2023/05/25 01:49:49;;;;;;;;;;;21.00;49.10;;;;;;5088737;28;20003;-54
2023/05/25 01:52:17;;;;;;;;;;;21.00;49.10;;;;;;5077007;28;19916;-54
2023/05/25 01:54:43;;;;;;;;;;;21.10;49.20;;;;;;5094385;28;19926;-53
2023/05/25 01:57:11;;;;;;;;;;;21.00;49.00;;;;;;5095313;28;20356;-54
2023/05/25 01:59:37;;;;;;;;;;;21.10;49.10;;;;;;5068295;28;19928;-54
2023/05/25 02:02:02;;;;;;;;;;;21.10;49.10;;;;;;5066547;28;20483;-54
2023/05/25 02:04:28;;;;;;;;;;;21.00;49.00;;;;;;5069916;28;20376;-54
2023/05/25 02:06:53;;;;;;;;;;;21.00;49.10;;;;;;5087364;28;19922;-54
2023/05/25 02:09:19;;;;;;;;;;;21.00;49.00;;;;;;5073435;28;19958;-54
2023/05/25 02:11:45;;;;;;;;;;;21.00;49.10;;;;;;5085106;28;19918;-54
2023/05/25 02:14:10;;;;;;;;;;;21.00;49.10;;;;;;5060885;28;19946;-54
2023/05/25 02:16:36;;;;;;;;;;;21.00;49.10;;;;;;5088367;28;20002;-54
2023/05/25 02:19:01;;;;;;;;;;;21.00;49.20;;;;;;5079872;28;19967;-54
2023/05/25 02:21:27;;;;;;;;;;;20.90;49.10;;;;;;5076055;28;19978;-54
2023/05/25 02:23:56;;;;;;;;;;;21.00;49.20;;;;;;5086833;28;19946;-54
2023/05/25 02:26:22;;;;;;;;;;;20.90;49.10;;;;;;5083606;28;19963;-54
2023/05/25 02:28:47;;;;;;;;;;;20.90;49.20;;;;;;5087868;28;19951;-53
2023/05/25 02:31:13;;;;;;;;;;;20.90;49.30;;;;;;5077710;28;20387;-54
2023/05/25 02:33:38;;;;;;;;;;;20.80;49.20;;;;;;5068070;28;19935;-54
2023/05/25 02:36:04;;;;;;;;;;;20.90;49.30;;;;;;5087695;28;19912;-54
2023/05/25 02:38:29;;;;;;;;;;;20.90;49.30;;;;;;5081395;28;19916;-54
2023/05/25 02:40:55;;;;;;;;;;;20.80;49.30;;;;;;5086552;28;20347;-54
2023/05/25 02:43:20;;;;;;;;;;;20.80;49.40;;;;;;5082725;28;20015;-53
2023/05/25 02:45:46;;;;;;;;;;;20.80;49.40;;;;;;5086838;28;19916;-55
2023/05/25 02:48:11;;;;;;;;;;;20.80;49.40;;;;;;5089107;28;19924;-54
2023/05/25 02:50:36;;;;;;;;;;;20.80;49.40;;;;;;5069137;28;20396;-54
2023/05/25 02:53:02;;;;;;;;;;;20.80;49.40;;;;;;5084908;28;20447;-55
2023/05/25 02:55:28;;;;;;;;;;;20.80;49.40;;;;;;5086436;28;20261;-54
2023/05/25 02:57:54;;;;;;;;;;;20.80;49.40;;;;;;5070236;28;19923;-54
2023/05/25 03:00:19;;;;;;;;;;;20.80;49.40;;;;;;5085617;28;21883;-54
2023/05/25 03:02:47;;;;;;;;;;;20.70;49.40;;;;;;5066257;28;19961;-54
2023/05/25 03:05:13;;;;;;;;;;;20.80;49.50;;;;;;5084213;28;19920;-54
2023/05/25 03:07:39;;;;;;;;;;;20.70;49.30;;;;;;5086758;28;19922;-54
2023/05/25 03:10:05;;;;;;;;;;;20.80;49.40;;;;;;5093722;28;19913;-54
2023/05/25 03:12:31;;;;;;;;;;;20.80;49.40;;;;;;5086750;28;19958;-54
2023/05/25 03:14:56;;;;;;;;;;;20.80;49.40;;;;;;5067177;28;20384;-54
2023/05/25 03:17:22;;;;;;;;;;;20.70;49.30;;;;;;5080723;28;20318;-54
2023/05/25 03:19:47;;;;;;;;;;;20.70;49.40;;;;;;5081989;28;19920;-54
2023/05/25 03:22:13;;;;;;;;;;;20.70;49.40;;;;;;5086665;28;19917;-54
2023/05/25 03:24:41;;;;;;;;;;;20.70;49.40;;;;;;5081281;28;19923;-54
2023/05/25 03:27:07;;;;;;;;;;;20.70;49.40;;;;;;5084476;28;19919;-54
2023/05/25 03:29:32;;;;;;;;;;;20.70;49.40;;;;;;5087239;28;19947;-54
2023/05/25 03:31:58;;;;;;;;;;;20.70;49.50;;;;;;5080531;28;19912;-54
2023/05/25 03:34:25;;;;;;;;;;;20.70;49.50;;;;;;5089170;28;19931;-53
2023/05/25 03:36:50;;;;;;;;;;;20.70;49.50;;;;;;5089283;28;20003;-54
2023/05/25 03:39:16;;;;;;;;;;;20.70;49.50;;;;;;5084807;28;20006;-54
2023/05/25 03:41:42;;;;;;;;;;;20.70;49.40;;;;;;5085964;28;19912;-54
2023/05/25 03:44:09;;;;;;;;;;;20.70;49.50;;;;;;5085308;28;20390;-54
2023/05/25 03:46:35;;;;;;;;;;;20.70;49.40;;;;;;5084913;28;20014;-54
2023/05/25 03:49:00;;;;;;;;;;;20.70;49.50;;;;;;5063536;28;20817;-54
2023/05/25 03:51:26;;;;;;;;;;;20.70;49.60;;;;;;5085990;28;20010;-54
2023/05/25 03:53:52;;;;;;;;;;;20.70;49.50;;;;;;5093997;28;19918;-54
2023/05/25 03:56:17;;;;;;;;;;;20.60;49.50;;;;;;5084901;28;19916;-54
2023/05/25 03:58:43;;;;;;;;;;;20.60;49.50;;;;;;5089198;28;19927;-54
2023/05/25 04:01:09;;;;;;;;;;;20.60;49.40;;;;;;5082195;28;19969;-53
2023/05/25 04:03:34;;;;;;;;;;;20.70;49.50;;;;;;5087622;28;19916;-54
2023/05/25 04:06:00;;;;;;;;;;;20.60;49.50;;;;;;5067014;28;20279;-54
2023/05/25 04:08:27;;;;;;;;;;;20.60;49.50;;;;;;5092943;28;19912;-54
2023/05/25 04:10:53;;;;;;;;;;;20.60;49.50;;;;;;5070572;28;20299;-54
2023/05/25 04:13:18;;;;;;;;;;;20.60;49.60;;;;;;5068081;28;19919;-54
2023/05/25 04:15:43;;;;;;;;;;;20.60;49.50;;;;;;5090998;28;20282;-54
2023/05/25 04:18:09;;;;;;;;;;;20.60;49.50;;;;;;5091705;28;19912;-54
2023/05/25 04:20:35;;;;;;;;;;;20.60;49.60;;;;;;5087011;28;19931;-54
2023/05/25 04:23:00;;;;;;;;;;;20.60;49.60;;;;;;5096647;28;19961;-54
2023/05/25 04:25:25;;;;;;;;;;;20.60;49.60;;;;;;5085819;28;20376;-54
2023/05/25 04:27:52;;;;;;;;;;;20.60;49.60;;;;;;5094396;28;20015;-54
2023/05/25 04:30:17;;;;;;;;;;;20.60;49.60;;;;;;5089051;28;19931;-53
2023/05/25 04:32:44;;;;;;;;;;;20.60;49.50;;;;;;5072842;28;19912;-54
2023/05/25 04:35:10;;;;;;;;;;;20.60;49.50;;;;;;5068855;28;20258;-54
2023/05/25 04:37:35;;;;;;;;;;;20.60;49.50;;;;;;5082781;28;19927;-54
2023/05/25 04:40:05;;;;;;;;;;;20.60;49.60;;;;;;5093110;28;19999;-54
2023/05/25 04:42:31;;;;;;;;;;;20.60;49.50;;;;;;5074426;28;19912;-54
2023/05/25 04:44:58;;;;;;;;;;;20.60;49.50;;;;;;5085413;28;20613;-54
2023/05/25 04:47:24;;;;;;;;;;;20.60;49.50;;;;;;5091628;28;20448;-54
2023/05/25 04:49:50;;;;;;;;;;;20.60;49.50;;;;;;5087814;28;19912;-54
2023/05/25 04:52:15;;;;;;;;;;;20.60;49.50;;;;;;5089122;28;20265;-54
2023/05/25 04:54:42;;;;;;;;;;;20.50;49.40;;;;;;5088370;28;19947;-54
2023/05/25 04:57:07;;;;;;;;;;;20.60;49.50;;;;;;5069018;28;20010;-54
2023/05/25 04:59:33;;;;;;;;;;;20.60;49.50;;;;;;5087971;28;20004;-54
2023/05/25 05:01:58;;;;;;;;;;;20.60;49.50;;;;;;5095148;28;19995;-53
2023/05/25 05:04:24;;;;;;;;;;;20.60;49.50;;;;;;5087441;28;19912;-53
2023/05/25 05:06:50;;;;;;;;;;;20.60;49.60;;;;;;5069103;28;19991;-54
2023/05/25 05:09:15;;;;;;;;;;;20.60;49.50;;;;;;5088333;28;20303;-54
2023/05/25 05:11:41;;;;;;;;;;;20.60;49.50;;;;;;5070110;28;19912;-53
2023/05/25 05:14:06;;;;;;;;;;;20.60;49.50;;;;;;5086712;28;20368;-54
2023/05/25 05:16:33;;;;;;;;;;;20.60;49.50;;;;;;5089020;28;20002;-53
2023/05/25 05:19:02;;;;;;;;;;;20.60;49.50;;;;;;5091262;28;19965;-53
2023/05/25 05:21:27;;;;;;;;;;;20.60;49.50;;;;;;5088274;28;19915;-54
2023/05/25 05:23:53;;;;;;;;;;;20.60;49.50;;;;;;5094091;28;19919;-54
2023/05/25 05:26:20;;;;;;;;;;;20.60;49.50;;;;;;5086657;28;20293;-53
2023/05/25 05:28:45;;;;;;;;;;;20.50;49.40;;;;;;5087039;28;20347;-53
2023/05/25 05:31:10;;;;;;;;;;;20.60;49.50;;;;;;5090769;28;20056;-54
2023/05/25 05:33:36;;;;;;;;;;;20.60;49.40;;;;;;5090499;28;20291;-54
2023/05/25 05:36:02;;;;;;;;;;;20.60;49.30;;;;;;5099682;28;20072;-54
2023/05/25 05:38:28;;;;;;;;;;;20.60;49.30;;;;;;5092751;28;19916;-54
2023/05/25 05:40:53;;;;;;;;;;;20.60;49.30;;;;;;5090191;28;19919;-54
2023/05/25 05:43:18;;;;;;;;;;;20.60;49.30;;;;;;5086880;28;19913;-53
2023/05/25 05:45:44;;;;;;;;;;;20.60;49.30;;;;;;5084106;28;19912;-53
2023/05/25 05:48:09;;;;;;;;;;;20.70;49.40;;;;;;5089624;28;19923;-54
2023/05/25 05:50:35;;;;;;;;;;;20.60;49.30;;;;;;5094947;28;20364;-54
2023/05/25 05:53:01;;;;;;;;;;;20.60;49.30;;;;;;5089674;28;19942;-53
2023/05/25 05:55:26;;;;;;;;;;;20.60;49.30;;;;;;5077059;28;20041;-53
2023/05/25 05:57:52;;;;;;;;;;;20.60;49.30;;;;;;5092151;28;19920;-54
2023/05/25 06:00:18;;;;;;;;;;;20.60;49.40;;;;;;5088383;28;19927;-53
2023/05/25 06:02:43;;;;;;;;;;;20.50;49.40;;;;;;5084769;28;19970;-54
2023/05/25 06:05:09;;;;;;;;;;;20.50;49.50;;;;;;5086275;28;20006;-53
2023/05/25 06:07:35;;;;;;;;;;;20.60;49.50;;;;;;5091415;28;20372;-53
2023/05/25 06:10:00;;;;;;;;;;;20.50;49.50;;;;;;5089965;28;19912;-54
2023/05/25 06:12:26;;;;;;;;;;;20.50;49.40;;;;;;5071854;28;19920;-53
2023/05/25 06:14:51;;;;;;;;;;;20.50;49.40;;;;;;5085571;28;19919;-53
2023/05/25 06:17:17;;;;;;;;;;;20.50;49.40;;;;;;5086576;28;19969;-53
2023/05/25 06:19:43;;;;;;;;;;;20.50;49.40;;;;;;5090746;28;19924;-54
2023/05/25 06:22:08;;;;;;;;;;;20.50;49.50;;;;;;5067395;28;19955;-54
2023/05/25 06:24:34;;;;;;;;;;;20.50;49.50;;;;;;5090131;28;19958;-54
2023/05/25 06:27:02;;;;;;;;;;;20.50;49.50;;;;;;5090666;28;19927;-53
2023/05/25 06:29:27;;;;;;;;;;;20.50;49.50;;;;;;5058181;28;19912;-53
2023/05/25 06:31:53;;;;;;;;;;;20.50;49.50;;;;;;5081758;28;19928;-53
2023/05/25 06:34:18;;;;;;;;;;;20.50;49.50;;;;;;5088361;28;19912;-54
2023/05/25 06:36:43;;;;;;;;;;;20.50;49.50;;;;;;5072632;28;19955;-54
2023/05/25 06:39:09;;;;;;;;;;;20.50;49.50;;;;;;5062035;28;19931;-54
2023/05/25 06:41:36;;;;;;;;;;;20.50;49.50;;;;;;5082417;28;19919;-54
2023/05/25 06:44:02;;;;;;;;;;;20.50;49.50;;;;;;5078973;28;19916;-54
2023/05/25 06:46:27;;;;;;;;;;;20.50;49.50;;;;;;5087292;28;20006;-53
2023/05/25 06:48:52;;;;;;;;;;;20.60;49.50;;;;;;5081056;28;19922;-54
2023/05/25 06:51:18;;;;;;;;;;;20.50;49.50;;;;;;5074671;28;19912;-54
2023/05/25 06:53:43;;;;;;;;;;;20.50;49.50;;;;;;5063146;28;19919;-54
2023/05/25 06:56:09;;;;;;;;;;;20.60;49.40;;;;;;5064834;28;20267;-54
2023/05/25 06:58:35;;;;;;;;;;;20.50;49.40;;;;;;5084697;28;19999;-54
2023/05/25 07:01:00;;;;;;;;;;;20.60;49.50;;;;;;5078252;28;19970;-54
2023/05/25 07:03:26;;;;;;;;;;;20.60;49.50;;;;;;5086705;28;19920;-55
2023/05/25 07:05:51;;;;;;;;;;;20.60;49.40;;;;;;5084753;28;19913;-53
2023/05/25 07:08:16;;;;;;;;;;;20.60;49.30;;;;;;5086440;28;19915;-54
2023/05/25 07:10:42;;;;;;;;;;;20.60;49.40;;;;;;5067569;28;19987;-54
2023/05/25 07:13:08;;;;;;;;;;;20.70;49.30;;;;;;5084596;28;19912;-54
2023/05/25 07:15:34;;;;;;;;;;;20.70;49.00;;;;;;5090659;28;19912;-55
2023/05/25 07:17:59;;;;;;;;;;;20.70;50.00;;;;;;5086261;28;19958;-55
2023/05/25 07:20:26;;;;;;;;;;;20.60;48.80;;;;;;5063691;28;20010;-55
2023/05/25 07:22:52;;;;;;;;;;;20.60;48.80;;;;;;5085710;28;19962;-54
2023/05/25 07:25:17;;;;;;;;;;;20.70;49.00;;;;;;5086410;28;19912;-52
2023/05/25 07:27:47;;;;;;;;;;;20.70;49.00;;;;;;5067990;28;20352;-54
2023/05/25 07:30:12;;;;;;;;;;;20.70;49.00;;;;;;5078095;28;20010;-54
2023/05/25 07:32:38;;;;;;;;;;;20.70;49.00;;;;;;5076157;28;20015;-53
2023/05/25 07:35:04;;;;;;;;;;;20.70;48.90;;;;;;5085060;28;19912;-55
2023/05/25 07:37:29;;;;;;;;;;;20.70;48.80;;;;;;5069765;28;20514;-54
2023/05/25 07:39:54;;;;;;;;;;;20.70;48.70;;;;;;5082478;28;20048;-53
2023/05/25 07:42:20;;;;;;;;;;;20.80;48.70;;;;;;5085016;28;19959;-54
2023/05/25 07:44:46;;;;;;;;;;;20.70;48.80;;;;;;5085482;28;20383;-55
2023/05/25 07:47:12;;;;;;;;;;;20.70;48.70;;;;;;5071776;28;20322;-54
2023/05/25 07:49:37;;;;;;;;;;;20.70;48.60;;;;;;5089083;28;19916;-55
2023/05/25 07:52:04;;;;;;;;;;;20.70;48.60;;;;;;5088094;28;20288;-55
2023/05/25 07:54:30;;;;;;;;;;;20.80;48.60;;;;;;5090911;28;19927;-54
2023/05/25 07:56:55;;;;;;;;;;;20.80;48.50;;;;;;5093186;28;19916;-54
2023/05/25 07:59:21;;;;;;;;;;;20.80;49.20;;;;;;5088063;28;19926;-54
2023/05/25 08:01:46;;;;;;;;;;;20.80;49.10;;;;;;5052686;28;19934;-55
2023/05/25 08:04:12;;;;;;;;;;;20.80;48.60;;;;;;5070678;28;19962;-54
2023/05/25 08:06:37;;;;;;;;;;;20.70;48.80;;;;;;5088582;28;19916;-55
2023/05/25 08:09:03;;;;;;;;;;;20.80;48.60;;;;;;5087445;28;20317;-55
2023/05/25 08:11:30;;;;;;;;;;;20.80;49.10;;;;;;5084361;28;20339;-55
2023/05/25 08:13:55;;;;;;;;;;;20.70;48.50;;;;;;5088103;28;19930;-55
2023/05/25 08:16:20;;;;;;;;;;;20.70;48.80;;;;;;5070990;28;19912;-53
2023/05/25 08:18:46;;;;;;;;;;;20.80;48.30;;;;;;5089450;28;19919;-54
2023/05/25 08:21:12;;;;;;;;;;;20.70;48.00;;;;;;5096176;28;19920;-54
2023/05/25 08:23:41;;;;;;;;;;;20.80;49.00;;;;;;5069367;28;20292;-54
2023/05/25 08:26:10;;;;;;;;;;;20.80;48.50;;;;;;5086530;28;19912;-54
2023/05/25 08:28:35;;;;;;;;;;;20.70;48.80;;;;;;5094773;28;19912;-55
2023/05/25 08:31:01;;;;;;;;;;;20.70;48.60;;;;;;5089341;28;19916;-55
2023/05/25 08:33:27;;;;;;;;;;;20.80;48.40;;;;;;5089646;28;19938;-54
2023/05/25 08:35:53;;;;;;;;;;;20.80;48.50;;;;;;5084185;28;19920;-55
2023/05/25 08:38:18;;;;;;;;;;;20.80;48.30;;;;;;5086976;28;19958;-55
2023/05/25 08:40:44;;;;;;;;;;;20.80;48.60;;;;;;5079375;28;19916;-55
2023/05/25 08:43:09;;;;;;;;;;;20.80;48.60;;;;;;5085848;28;19912;-54
2023/05/25 08:45:35;;;;;;;;;;;20.90;48.60;;;;;;5090276;28;19951;-54
2023/05/25 08:48:01;;;;;;;;;;;20.80;47.90;;;;;;5091014;28;19969;-56
2023/05/25 08:50:27;;;;;;;;;;;20.90;48.20;;;;;;5073027;28;19931;-54
2023/05/25 08:52:52;;;;;;;;;;;20.90;48.50;;;;;;5071183;28;19912;-54
2023/05/25 08:55:18;;;;;;;;;;;20.90;48.00;;;;;;5064725;28;19967;-55
2023/05/25 08:57:46;;;;;;;;;;;20.90;47.70;;;;;;5059268;28;19923;-54
2023/05/25 09:00:13;;;;;;;;;;;20.90;48.10;;;;;;5087366;28;19981;-54
2023/05/25 09:02:41;;;;;;;;;;;20.90;48.00;;;;;;5069211;28;19966;-54
2023/05/25 09:05:07;;;;;;;;;;;20.90;47.50;;;;;;5088734;28;19999;-55
2023/05/25 09:07:32;;;;;;;;;;;21.00;47.40;;;;;;5088868;28;19920;-55
2023/05/25 09:09:59;;;;;;;;;;;21.00;47.60;;;;;;5070484;28;21639;-55
2023/05/25 09:12:25;;;;;;;;;;;20.80;47.20;;;;;;5058375;28;19919;-55
2023/05/25 09:14:51;;;;;;;;;;;21.00;47.20;;;;;;5067031;28;20444;-55
2023/05/25 09:17:17;;;;;;;;;;;21.00;47.40;;;;;;5082858;28;19999;-53
2023/05/25 09:19:42;;;;;;;;;;;21.10;47.50;;;;;;5088793;28;20004;-53
2023/05/25 09:22:11;;;;;;;;;;;21.00;47.00;;;;;;5094259;28;19950;-54
2023/05/25 09:24:40;;;;;;;;;;;21.00;47.80;;;;;;5085618;28;19916;-55
2023/05/25 09:27:05;;;;;;;;;;;21.00;47.70;;;;;;5085955;28;19967;-54
2023/05/25 09:29:31;;;;;;;;;;;21.00;47.60;;;;;;5086750;28;19920;-54
2023/05/25 09:31:57;;;;;;;;;;;21.00;47.00;;;;;;5087667;28;19916;-54
2023/05/25 09:34:22;;;;;;;;;;;21.10;47.10;;;;;;5089694;28;19916;-55
2023/05/25 09:36:47;;;;;;;;;;;21.10;47.30;;;;;;5085573;28;19999;-54
2023/05/25 09:39:13;;;;;;;;;;;21.10;47.30;;;;;;5083564;28;19978;-54
2023/05/25 09:41:41;;;;;;;;;;;21.10;46.90;;;;;;5085752;28;20287;-54
2023/05/25 09:44:07;;;;;;;;;;;21.20;47.00;;;;;;5085127;28;19923;-53
2023/05/25 09:46:37;;;;;;;;;;;21.20;47.40;;;;;;5087650;28;19924;-55
2023/05/25 09:49:07;;;;;;;;;;;21.20;47.60;;;;;;5083776;28;19920;-53
2023/05/25 09:51:32;;;;;;;;;;;21.20;47.40;;;;;;5085541;28;19921;-54
2023/05/25 09:53:59;;;;;;;;;;;21.20;47.20;;;;;;5083168;28;19939;-55
2023/05/25 09:56:26;;;;;;;;;;;21.30;47.40;;;;;;5082066;28;19959;-55
2023/05/25 09:58:51;;;;;;;;;;;21.20;46.70;;;;;;5083703;28;20349;-54
2023/05/25 10:01:18;;;;;;;;;;;21.30;46.90;;;;;;5086255;28;19916;-54
2023/05/25 10:03:55;;;;;;;;;;;21.30;47.10;;;;;;5087539;28;19921;-54
2023/05/25 10:06:21;;;;;;;;;;;21.30;46.60;;;;;;5085203;28;20199;-54
2023/05/25 10:08:46;;;;;;;;;;;21.30;46.50;;;;;;5066981;28;19917;-54
2023/05/25 10:11:12;;;;;;;;;;;21.30;46.00;;;;;;5090937;28;19962;-54
2023/05/25 10:13:37;;;;;;;;;;;21.40;47.20;;;;;;5084534;28;19965;-54
2023/05/25 10:16:03;;;;;;;;;;;21.30;46.70;;;;;;5083437;28;19923;-54
2023/05/25 10:18:28;;;;;;;;;;;21.30;46.20;;;;;;5073481;28;19912;-54
2023/05/25 10:21:01;;;;;;;;;;;21.30;46.20;;;;;;5088272;28;20471;-55
2023/05/25 10:23:27;;;;;;;;;;;21.30;46.50;;;;;;5073093;28;19912;-54
2023/05/25 10:25:53;;;;;;;;;;;21.40;46.40;;;;;;5086784;28;19920;-53
2023/05/25 10:28:28;;;;;;;;;;;21.40;45.80;;;;;;5087506;28;19912;-54
2023/05/25 10:30:57;;;;;;;;;;;21.40;45.60;;;;;;5086497;28;20039;-54
2023/05/25 10:33:23;;;;;;;;;;;21.50;45.70;;;;;;5062989;28;19916;-54
2023/05/25 10:35:48;;;;;;;;;;;21.50;45.90;;;;;;5082958;28;19920;-54
2023/05/25 10:38:14;;;;;;;;;;;21.50;45.70;;;;;;5087419;28;20328;-54
2023/05/25 10:40:39;;;;;;;;;;;21.50;45.70;;;;;;5085352;28;20023;-54
2023/05/25 10:43:04;;;;;;;;;;;21.50;45.70;;;;;;5093582;28;19919;-53
2023/05/25 10:45:30;;;;;;;;;;;21.50;45.70;;;;;;5063841;28;19919;-54
2023/05/25 10:47:55;;;;;;;;;;;21.50;46.00;;;;;;5061854;28;20003;-55
2023/05/25 10:50:23;;;;;;;;;;;21.50;46.00;;;;;;5061949;28;20430;-55
2023/05/25 10:53:06;;;;;;;;;;;21.60;45.90;;;;;;5085297;28;19920;-55
2023/05/25 10:55:50;;;;;;;;;;;21.60;46.00;;;;;;5085984;28;20372;-54
2023/05/25 10:58:16;;;;;;;;;;;21.70;46.10;;;;;;5059673;28;19926;-54
2023/05/25 11:00:42;;;;;;;;;;;21.70;46.00;;;;;;5080030;28;19928;-55
2023/05/25 11:03:08;;;;;;;;;;;21.70;46.10;;;;;;5086469;28;19916;-54
2023/05/25 11:05:34;;;;;;;;;;;21.70;46.10;;;;;;5086281;28;20291;-54
2023/05/25 11:08:04;;;;;;;;;;;21.70;45.90;;;;;;5064096;28;19927;-54
2023/05/25 11:10:45;;;;;;;;;;;21.80;45.90;;;;;;5062924;28;19968;-55
2023/05/25 11:13:20;;;;;;;;;;;21.80;46.00;;;;;;5088382;28;19912;-55
2023/05/25 11:15:46;;;;;;;;;;;21.80;46.10;;;;;;5064172;28;19912;-54
2023/05/25 11:18:14;;;;;;;;;;;21.80;46.00;;;;;;5092649;28;19912;-55
2023/05/25 11:20:40;;;;;;;;;;;21.80;46.10;;;;;;5079832;28;19946;-54
2023/05/25 11:23:21;;;;;;;;;;;21.80;46.20;;;;;;5084433;28;20444;-54
2023/05/25 11:25:46;;;;;;;;;;;21.80;46.20;;;;;;5091437;28;19916;-54
2023/05/25 11:28:12;;;;;;;;;;;21.70;46.10;;;;;;5092857;28;20332;-55
2023/05/25 11:30:41;;;;;;;;;;;21.70;46.30;;;;;;5094186;28;20360;-55
2023/05/25 11:33:07;;;;;;;;;;;21.80;46.30;;;;;;5096177;28;19978;-55
2023/05/25 11:35:35;;;;;;;;;;;21.80;46.20;;;;;;5060229;28;19924;-56
2023/05/25 11:38:05;;;;;;;;;;;21.80;46.20;;;;;;5084934;28;19919;-54
2023/05/25 11:40:30;;;;;;;;;;;21.90;46.30;;;;;;5088561;28;20900;-54
2023/05/25 11:42:56;;;;;;;;;;;21.90;46.00;;;;;;5087516;28;20015;-54
2023/05/25 11:45:22;;;;;;;;;;;21.90;46.00;;;;;;5090838;28;19916;-54
2023/05/25 11:47:47;;;;;;;;;;;22.00;46.10;;;;;;5092476;28;20380;-54
2023/05/25 11:50:16;;;;;;;;;;;22.10;46.20;;;;;;5091157;28;20409;-54
2023/05/25 11:52:41;;;;;;;;;;;22.10;46.10;;;;;;5086615;28;19934;-53
2023/05/25 11:55:10;;;;;;;;;;;22.10;46.20;;;;;;5068104;28;20709;-54
2023/05/25 11:57:36;;;;;;;;;;;22.10;46.30;;;;;;5070429;28;19919;-55
2023/05/25 12:00:05;;;;;;;;;;;22.10;46.30;;;;;;5081402;28;19928;-55
2023/05/25 12:02:37;;;;;;;;;;;22.10;46.40;;;;;;5088483;28;20475;-55
2023/05/25 12:05:03;;;;;;;;;;;22.10;46.40;;;;;;5091797;28;20006;-55
2023/05/25 12:07:28;;;;;;;;;;;22.20;46.30;;;;;;5096734;28;19918;-55
2023/05/25 12:10:04;;;;;;;;;;;22.20;46.30;;;;;;5091221;28;20372;-55
2023/05/25 12:12:35;;;;;;;;;;;22.20;46.20;;;;;;5097421;28;20289;-54
2023/05/25 12:15:01;;;;;;;;;;;22.20;46.20;;;;;;5086147;28;19916;-54
2023/05/25 12:17:26;;;;;;;;;;;22.20;46.20;;;;;;5063629;28;19913;-55
2023/05/25 12:19:52;;;;;;;;;;;22.20;46.30;;;;;;5091020;28;19922;-54
2023/05/25 12:22:17;;;;;;;;;;;22.20;46.20;;;;;;5095740;28;19976;-54
2023/05/25 12:24:42;;;;;;;;;;;22.20;46.50;;;;;;5085365;28;20162;-54
2023/05/25 12:27:18;;;;;;;;;;;22.30;46.40;;;;;;5086160;28;19920;-54
2023/05/25 12:29:46;;;;;;;;;;;22.30;46.50;;;;;;5082375;28;20288;-54
2023/05/25 12:32:12;;;;;;;;;;;22.30;46.50;;;;;;5088313;28;20003;-53
2023/05/25 12:34:37;;;;;;;;;;;22.30;46.60;;;;;;5067580;28;20011;-55
2023/05/25 12:37:03;;;;;;;;;;;22.30;46.40;;;;;;5087806;28;19927;-53
2023/05/25 12:39:28;;;;;;;;;;;22.40;46.50;;;;;;5068609;28;20386;-55
2023/05/25 12:41:54;;;;;;;;;;;22.40;46.50;;;;;;5089567;28;19912;-54
2023/05/25 12:44:32;;;;;;;;;;;22.40;46.60;;;;;;5084632;28;19919;-54
2023/05/25 12:47:18;;;;;;;;;;;22.40;46.50;;;;;;5071475;28;19957;-54
2023/05/25 12:49:44;;;;;;;;;;;22.30;45.60;;;;;;5087288;28;19919;-54
2023/05/25 12:52:10;;;;;;;;;;;22.30;46.90;;;;;;5089545;28;19912;-54
2023/05/25 12:54:36;;;;;;;;;;;22.20;46.60;;;;;;5068887;28;19927;-54
2023/05/25 12:57:05;;;;;;;;;;;22.20;45.70;;;;;;5087408;28;20388;-53
2023/05/25 12:59:31;;;;;;;;;;;22.30;45.60;;;;;;5093904;28;19981;-54
2023/05/25 13:01:57;;;;;;;;;;;22.30;46.40;;;;;;5088160;28;19994;-54
2023/05/25 13:04:22;;;;;;;;;;;22.20;47.30;;;;;;5084182;28;20015;-54
2023/05/25 13:06:48;;;;;;;;;;;22.20;45.80;;;;;;5086068;28;19964;-54
2023/05/25 13:09:13;;;;;;;;;;;22.20;46.50;;;;;;5087931;28;19920;-54
2023/05/25 13:11:39;;;;;;;;;;;22.20;46.30;;;;;;5084423;28;19912;-55
2023/05/25 13:14:04;;;;;;;;;;;22.20;46.00;;;;;;5082997;28;19962;-54
2023/05/25 13:16:32;;;;;;;;;;;22.30;46.00;;;;;;5088259;28;19912;-54
2023/05/25 13:18:58;;;;;;;;;;;22.30;46.30;;;;;;5090096;28;19916;-54
2023/05/25 13:21:24;;;;;;;;;;;22.30;46.40;;;;;;5087780;28;19923;-54
2023/05/25 13:23:49;;;;;;;;;;;22.30;46.80;;;;;;5086668;28;20383;-54
2023/05/25 13:26:15;;;;;;;;;;;22.30;46.70;;;;;;5089999;28;19912;-54
2023/05/25 13:28:40;;;;;;;;;;;22.20;47.20;;;;;;5091999;28;19912;-54
2023/05/25 13:31:06;;;;;;;;;;;22.30;47.10;;;;;;5090721;28;19916;-54
2023/05/25 13:33:31;;;;;;;;;;;22.30;46.80;;;;;;5088773;28;19912;-54
2023/05/25 13:35:57;;;;;;;;;;;22.30;46.60;;;;;;5085143;28;20435;-54
2023/05/25 13:38:23;;;;;;;;;;;22.30;46.80;;;;;;5086610;28;20587;-54
2023/05/25 13:40:48;;;;;;;;;;;22.40;46.90;;;;;;5081891;28;20002;-55
2023/05/25 13:43:14;;;;;;;;;;;22.40;46.70;;;;;;5087253;28;20379;-54
2023/05/25 13:45:39;;;;;;;;;;;22.40;46.50;;;;;;5089312;28;19916;-54
2023/05/25 13:48:04;;;;;;;;;;;22.50;46.40;;;;;;5090504;28;20291;-53
2023/05/25 13:50:30;;;;;;;;;;;22.50;46.40;;;;;;5089447;28;19920;-54
2023/05/25 13:52:55;;;;;;;;;;;22.50;46.90;;;;;;5069105;28;19912;-54
2023/05/25 13:55:22;;;;;;;;;;;22.50;46.50;;;;;;5093298;28;19912;-54
2023/05/25 13:57:47;;;;;;;;;;;22.50;46.90;;;;;;5083815;28;19975;-54
2023/05/25 14:00:13;;;;;;;;;;;22.50;47.00;;;;;;5091889;28;20407;-54
2023/05/25 14:02:38;;;;;;;;;;;22.40;47.00;;;;;;5084583;28;20044;-54
2023/05/25 14:05:04;;;;;;;;;;;22.50;47.10;;;;;;5060377;28;19962;-55
2023/05/25 14:07:30;;;;;;;;;;;22.40;47.30;;;;;;5080216;28;19973;-54
2023/05/25 14:09:55;;;;;;;;;;;22.40;47.10;;;;;;5076393;28;19919;-54
2023/05/25 14:12:20;;;;;;;;;;;22.50;47.00;;;;;;5085851;28;19957;-54